createdAt,value
2018-07-24T00:00:45.056Z,0.00
2018-07-24T00:01:45.120Z,0.00
2018-07-24T00:02:45.184Z,0.00
2018-07-24T00:03:45.248Z,0.00
2018-07-24T00:04:45.317Z,0.00
2018-07-24T00:05:45.397Z,0.00
2018-07-24T00:06:45.448Z,0.00
2018-07-24T00:07:45.516Z,0.00
2018-07-24T00:08:45.592Z,0.00
2018-07-24T00:09:45.648Z,0.00
2018-07-24T00:10:45.720Z,0.00
2018-07-24T00:11:45.792Z,0.00
2018-07-24T00:12:45.848Z,0.00
2018-07-24T00:13:45.917Z,0.00
2018-07-24T00:14:45.980Z,0.00
2018-07-24T00:15:46.056Z,0.00
2018-07-24T00:16:46.121Z,0.00
2018-07-24T00:17:46.184Z,0.00
2018-07-24T00:18:46.249Z,0.00
2018-07-24T00:19:46.312Z,0.00
2018-07-24T00:20:46.388Z,0.00
2018-07-24T00:21:46.453Z,0.00
2018-07-24T00:22:46.513Z,0.00
2018-07-24T00:23:46.585Z,0.00
2018-07-24T00:24:46.653Z,0.00
2018-07-24T00:25:46.720Z,0.00
2018-07-24T00:26:46.789Z,0.00
2018-07-24T00:27:46.845Z,0.00
2018-07-24T00:28:46.913Z,0.00
2018-07-24T00:29:46.981Z,0.00
2018-07-24T00:30:47.053Z,0.00
2018-07-24T00:31:47.121Z,0.00
2018-07-24T00:32:47.180Z,0.00
2018-07-24T00:33:47.245Z,0.00
2018-07-24T00:34:47.313Z,0.00
2018-07-24T00:35:47.533Z,0.00
2018-07-24T00:36:47.449Z,0.00
2018-07-24T00:37:47.513Z,0.00
2018-07-24T00:38:47.576Z,0.00
2018-07-24T00:39:47.645Z,0.00
2018-07-24T00:40:47.717Z,0.00
2018-07-24T00:41:47.793Z,0.00
2018-07-24T00:42:47.845Z,0.00
2018-07-24T00:43:47.909Z,0.00
2018-07-24T00:44:47.981Z,0.00
2018-07-24T00:45:48.050Z,0.00
2018-07-24T00:46:48.117Z,0.00
2018-07-24T00:47:48.177Z,0.00
2018-07-24T00:48:48.241Z,0.00
2018-07-24T00:49:48.309Z,0.00
2018-07-24T00:50:48.494Z,0.00
2018-07-24T00:51:48.442Z,0.00
2018-07-24T00:52:48.509Z,0.00
2018-07-24T00:53:48.578Z,0.00
2018-07-24T00:54:48.642Z,0.00
2018-07-24T00:55:48.722Z,0.00
2018-07-24T00:56:48.802Z,0.00
2018-07-24T00:57:48.846Z,0.00
2018-07-24T00:58:48.906Z,0.00
2018-07-24T00:59:48.981Z,0.00
2018-07-24T01:00:49.051Z,0.00
2018-07-24T01:01:49.117Z,0.00
2018-07-24T01:02:49.178Z,0.00
2018-07-24T01:03:49.238Z,0.00
2018-07-24T01:04:49.306Z,0.00
2018-07-24T01:05:49.378Z,0.00
2018-07-24T01:06:49.442Z,0.00
2018-07-24T01:07:49.502Z,0.00
2018-07-24T01:08:49.574Z,0.00
2018-07-24T01:09:49.638Z,0.00
2018-07-24T01:10:49.715Z,0.00
2018-07-24T01:11:49.810Z,0.00
2018-07-24T01:12:49.835Z,0.00
2018-07-24T01:13:49.906Z,0.00
2018-07-24T01:14:49.971Z,0.00
2018-07-24T01:15:50.045Z,0.00
2018-07-24T01:16:50.107Z,0.00
2018-07-24T01:17:50.166Z,0.00
2018-07-24T01:18:50.234Z,0.00
2018-07-24T01:19:50.299Z,0.00
2018-07-24T01:20:50.388Z,0.00
2018-07-24T01:21:50.439Z,0.00
2018-07-24T01:22:50.500Z,0.00
2018-07-24T01:23:50.567Z,0.00
2018-07-24T01:24:50.631Z,0.00
2018-07-24T01:25:50.711Z,0.00
2018-07-24T01:26:50.771Z,0.00
2018-07-24T01:27:50.831Z,0.00
2018-07-24T01:28:50.896Z,0.00
2018-07-24T01:29:50.964Z,0.00
2018-07-24T01:30:51.035Z,0.00
2018-07-24T01:31:51.104Z,0.00
2018-07-24T01:32:51.161Z,0.00
2018-07-24T01:33:51.227Z,0.00
2018-07-24T01:34:51.295Z,0.00
2018-07-24T01:35:51.368Z,0.00
2018-07-24T01:36:51.431Z,0.00
2018-07-24T01:37:51.500Z,0.00
2018-07-24T01:38:51.560Z,0.00
2018-07-24T01:39:51.627Z,0.00
2018-07-24T01:40:51.700Z,0.00
2018-07-24T01:41:51.764Z,0.00
2018-07-24T01:42:51.824Z,0.00
2018-07-24T01:43:51.888Z,0.00
2018-07-24T01:44:51.960Z,0.00
2018-07-24T01:45:52.028Z,0.00
2018-07-24T01:46:52.097Z,0.00
2018-07-24T01:47:52.156Z,0.00
2018-07-24T01:48:52.220Z,0.00
2018-07-24T01:49:52.289Z,0.00
2018-07-24T01:50:52.360Z,0.00
2018-07-24T01:51:52.428Z,0.00
2018-07-24T01:52:52.487Z,0.00
2018-07-24T01:53:52.552Z,0.00
2018-07-24T01:54:52.616Z,0.00
2018-07-24T01:55:52.692Z,0.00
2018-07-24T01:56:52.759Z,0.00
2018-07-24T01:57:52.816Z,0.00
2018-07-24T01:58:52.884Z,0.00
2018-07-24T01:59:52.948Z,0.00
2018-07-24T02:00:53.021Z,0.00
2018-07-24T02:01:53.092Z,0.00
2018-07-24T02:02:53.148Z,0.00
2018-07-24T02:03:53.212Z,0.00
2018-07-24T02:04:53.284Z,0.00
2018-07-24T02:05:53.352Z,0.00
2018-07-24T02:06:53.416Z,0.00
2018-07-24T02:07:53.477Z,0.00
2018-07-24T02:08:53.545Z,0.00
2018-07-24T02:09:53.609Z,0.00
2018-07-24T02:10:53.681Z,0.00
2018-07-24T02:11:53.754Z,0.00
2018-07-24T02:12:53.810Z,0.00
2018-07-24T02:13:53.873Z,0.00
2018-07-24T02:14:53.941Z,0.00
2018-07-24T02:15:54.017Z,0.00
2018-07-24T02:16:54.077Z,0.00
2018-07-24T02:17:54.137Z,0.00
2018-07-24T02:18:54.205Z,0.00
2018-07-24T02:19:54.295Z,0.00
2018-07-24T02:20:54.341Z,0.00
2018-07-24T02:21:54.410Z,0.00
2018-07-24T02:22:54.473Z,0.00
2018-07-24T02:23:54.534Z,0.00
2018-07-24T02:24:54.602Z,0.00
2018-07-24T02:25:54.769Z,0.00
2018-07-24T02:26:54.738Z,0.00
2018-07-24T02:27:54.797Z,0.00
2018-07-24T02:28:54.866Z,0.00
2018-07-24T02:29:54.933Z,0.00
2018-07-24T02:30:55.006Z,0.00
2018-07-24T02:31:55.111Z,0.00
2018-07-24T02:32:55.138Z,0.00
2018-07-24T02:33:55.199Z,0.00
2018-07-24T02:34:55.262Z,0.00
2018-07-24T02:35:55.506Z,0.00
2018-07-24T02:36:55.394Z,0.00
2018-07-24T02:37:55.458Z,0.00
2018-07-24T02:38:55.526Z,0.00
2018-07-24T02:39:55.590Z,0.00
2018-07-24T02:40:55.663Z,0.00
2018-07-24T02:41:55.731Z,0.00
2018-07-24T02:42:55.799Z,0.00
2018-07-24T02:43:55.859Z,0.00
2018-07-24T02:44:55.922Z,0.00
2018-07-24T02:45:55.994Z,0.00
2018-07-24T02:46:56.058Z,0.00
2018-07-24T02:47:56.127Z,0.00
2018-07-24T02:48:56.186Z,0.00
2018-07-24T02:49:56.253Z,0.00
2018-07-24T02:50:56.472Z,0.00
2018-07-24T02:51:56.383Z,0.00
2018-07-24T02:52:56.447Z,0.00
2018-07-24T02:53:56.515Z,0.00
2018-07-24T02:54:56.578Z,0.00
2018-07-24T02:55:56.655Z,0.00
2018-07-24T02:56:56.720Z,0.00
2018-07-24T02:57:56.779Z,0.00
2018-07-24T02:58:56.847Z,0.00
2018-07-24T02:59:56.907Z,0.00
2018-07-24T03:00:56.999Z,0.00
2018-07-24T03:01:57.047Z,0.00
2018-07-24T03:02:57.108Z,0.00
2018-07-24T03:03:57.173Z,0.00
2018-07-24T03:04:57.240Z,0.00
2018-07-24T03:05:57.348Z,0.00
2018-07-24T03:06:57.380Z,0.00
2018-07-24T03:07:57.435Z,0.00
2018-07-24T03:08:57.503Z,0.00
2018-07-24T03:09:57.567Z,0.00
2018-07-24T03:10:57.644Z,0.00
2018-07-24T03:11:57.748Z,0.00
2018-07-24T03:12:57.767Z,0.00
2018-07-24T03:13:57.834Z,0.00
2018-07-24T03:14:57.900Z,0.00
2018-07-24T03:15:57.977Z,0.00
2018-07-24T03:16:58.036Z,0.00
2018-07-24T03:17:58.096Z,0.00
2018-07-24T03:18:58.163Z,0.00
2018-07-24T03:19:58.228Z,0.00
2018-07-24T03:20:58.448Z,0.00
2018-07-24T03:21:58.361Z,0.00
2018-07-24T03:22:58.424Z,0.00
2018-07-24T03:23:58.503Z,0.00
2018-07-24T03:24:58.556Z,0.00
2018-07-24T03:25:58.632Z,0.00
2018-07-24T03:26:58.696Z,0.00
2018-07-24T03:27:58.752Z,0.00
2018-07-24T03:28:58.820Z,0.00
2018-07-24T03:29:58.884Z,0.00
2018-07-24T03:30:58.966Z,0.00
2018-07-24T03:31:59.024Z,0.00
2018-07-24T03:32:59.084Z,0.00
2018-07-24T03:33:59.148Z,0.00
2018-07-24T03:34:59.216Z,0.00
2018-07-24T03:35:59.596Z,0.00
2018-07-24T03:36:59.346Z,0.00
2018-07-24T03:37:59.412Z,0.00
2018-07-24T03:38:59.476Z,0.00
2018-07-24T03:39:59.550Z,0.00
2018-07-24T03:40:59.617Z,0.00
2018-07-24T03:41:59.681Z,0.00
2018-07-24T03:42:59.746Z,5.63
2018-07-24T03:43:59.806Z,5.63
2018-07-24T03:44:59.879Z,5.63
2018-07-24T03:45:59.944Z,5.63
2018-07-24T03:47:00.014Z,5.63
2018-07-24T03:48:00.070Z,5.63
2018-07-24T03:49:00.152Z,5.63
2018-07-24T03:50:00.201Z,5.63
2018-07-24T03:51:00.281Z,5.63
2018-07-24T03:52:00.334Z,5.63
2018-07-24T03:53:00.397Z,11.25
2018-07-24T03:54:00.469Z,11.25
2018-07-24T03:55:00.529Z,11.25
2018-07-24T03:56:00.603Z,11.25
2018-07-24T03:57:00.673Z,11.25
2018-07-24T03:58:00.790Z,11.25
2018-07-24T03:59:00.808Z,11.25
2018-07-24T04:00:00.857Z,16.88
2018-07-24T04:01:00.930Z,16.88
2018-07-24T04:02:00.998Z,16.88
2018-07-24T04:03:01.058Z,16.88
2018-07-24T04:04:01.121Z,16.88
2018-07-24T04:05:01.185Z,16.88
2018-07-24T04:06:01.569Z,22.50
2018-07-24T04:07:01.318Z,22.50
2018-07-24T04:08:01.386Z,22.50
2018-07-24T04:09:01.450Z,22.50
2018-07-24T04:10:01.520Z,22.50
2018-07-24T04:11:01.590Z,28.13
2018-07-24T04:12:01.660Z,28.13
2018-07-24T04:13:01.715Z,28.13
2018-07-24T04:14:01.777Z,28.13
2018-07-24T04:15:01.846Z,33.75
2018-07-24T04:16:01.918Z,33.75
2018-07-24T04:17:01.986Z,33.75
2018-07-24T04:18:02.046Z,33.75
2018-07-24T04:19:02.106Z,39.38
2018-07-24T04:20:02.178Z,39.38
2018-07-24T04:21:02.515Z,39.38
2018-07-24T04:22:02.306Z,39.38
2018-07-24T04:23:02.370Z,45.00
2018-07-24T04:24:02.434Z,45.00
2018-07-24T04:25:02.506Z,45.00
2018-07-24T04:26:02.574Z,45.00
2018-07-24T04:27:02.647Z,50.63
2018-07-24T04:28:02.701Z,50.63
2018-07-24T04:29:02.766Z,50.63
2018-07-24T04:30:02.831Z,50.63
2018-07-24T04:31:02.905Z,56.25
2018-07-24T04:32:02.971Z,56.25
2018-07-24T04:33:03.030Z,56.25
2018-07-24T04:34:03.095Z,56.25
2018-07-24T04:35:03.162Z,61.88
2018-07-24T04:36:03.243Z,61.88
2018-07-24T04:37:03.286Z,61.88
2018-07-24T04:38:03.358Z,61.88
2018-07-24T04:39:03.423Z,67.50
2018-07-24T04:40:03.516Z,67.50
2018-07-24T04:41:03.560Z,67.50
2018-07-24T04:42:03.627Z,67.50
2018-07-24T04:43:03.687Z,73.13
2018-07-24T04:44:03.755Z,73.13
2018-07-24T04:45:03.826Z,73.13
2018-07-24T04:46:03.890Z,78.75
2018-07-24T04:47:03.959Z,78.75
2018-07-24T04:48:04.019Z,78.75
2018-07-24T04:49:04.088Z,84.38
2018-07-24T04:50:04.151Z,84.38
2018-07-24T04:51:04.239Z,84.38
2018-07-24T04:52:04.278Z,84.38
2018-07-24T04:53:04.347Z,90.00
2018-07-24T04:54:04.411Z,90.00
2018-07-24T04:55:04.483Z,90.00
2018-07-24T04:56:04.551Z,95.63
2018-07-24T04:57:04.622Z,95.63
2018-07-24T04:58:04.675Z,95.63
2018-07-24T04:59:04.743Z,95.63
2018-07-24T05:00:04.807Z,101.25
2018-07-24T05:01:04.883Z,101.25
2018-07-24T05:02:04.951Z,101.25
2018-07-24T05:03:05.007Z,106.88
2018-07-24T05:04:05.071Z,106.88
2018-07-24T05:05:05.143Z,106.88
2018-07-24T05:06:05.220Z,112.50
2018-07-24T05:07:05.312Z,112.50
2018-07-24T05:08:05.347Z,112.50
2018-07-24T05:09:05.404Z,112.50
2018-07-24T05:10:05.472Z,118.13
2018-07-24T05:11:05.544Z,118.13
2018-07-24T05:12:05.608Z,118.13
2018-07-24T05:13:05.668Z,123.75
2018-07-24T05:14:05.735Z,123.75
2018-07-24T05:15:05.800Z,123.75
2018-07-24T05:16:05.872Z,123.75
2018-07-24T05:17:05.940Z,129.38
2018-07-24T05:18:06.000Z,129.38
2018-07-24T05:19:06.064Z,129.38
2018-07-24T05:20:06.132Z,129.38
2018-07-24T05:21:06.212Z,135.00
2018-07-24T05:22:06.264Z,135.00
2018-07-24T05:23:06.340Z,135.00
2018-07-24T05:24:06.396Z,135.00
2018-07-24T05:25:06.464Z,140.63
2018-07-24T05:26:06.546Z,140.63
2018-07-24T05:27:06.604Z,140.63
2018-07-24T05:28:06.656Z,140.63
2018-07-24T05:29:06.728Z,146.25
2018-07-24T05:30:06.792Z,146.25
2018-07-24T05:31:06.868Z,146.25
2018-07-24T05:32:06.932Z,146.25
2018-07-24T05:33:07.013Z,151.88
2018-07-24T05:34:07.060Z,151.88
2018-07-24T05:35:07.124Z,151.88
2018-07-24T05:36:07.204Z,151.88
2018-07-24T05:37:07.257Z,157.50
2018-07-24T05:38:07.324Z,157.50
2018-07-24T05:39:07.393Z,157.50
2018-07-24T05:40:07.457Z,157.50
2018-07-24T05:41:07.533Z,157.50
2018-07-24T05:42:07.597Z,163.13
2018-07-24T05:43:07.663Z,163.13
2018-07-24T05:44:07.728Z,163.13
2018-07-24T05:45:07.796Z,163.13
2018-07-24T05:46:07.892Z,163.13
2018-07-24T05:47:07.945Z,168.75
2018-07-24T05:48:07.993Z,168.75
2018-07-24T05:49:08.061Z,168.75
2018-07-24T05:50:08.123Z,168.75
2018-07-24T05:51:08.204Z,168.75
2018-07-24T05:52:08.253Z,168.75
2018-07-24T05:53:08.321Z,168.75
2018-07-24T05:54:08.397Z,168.75
2018-07-24T05:55:08.511Z,168.75
2018-07-24T05:56:08.531Z,168.75
2018-07-24T05:57:08.593Z,174.38
2018-07-24T05:58:08.653Z,174.38
2018-07-24T05:59:08.721Z,174.38
2018-07-24T06:00:08.793Z,174.38
2018-07-24T06:01:08.861Z,174.38
2018-07-24T06:02:08.930Z,180.00
2018-07-24T06:03:08.990Z,180.00
2018-07-24T06:04:09.053Z,180.00
2018-07-24T06:05:09.122Z,180.00
2018-07-24T06:06:09.294Z,180.00
2018-07-24T06:07:09.258Z,180.00
2018-07-24T06:08:09.322Z,185.63
2018-07-24T06:09:09.391Z,185.63
2018-07-24T06:10:09.452Z,185.63
2018-07-24T06:11:09.580Z,185.63
2018-07-24T06:12:09.594Z,185.63
2018-07-24T06:13:09.668Z,185.63
2018-07-24T06:14:09.721Z,185.63
2018-07-24T06:15:09.794Z,185.63
2018-07-24T06:16:09.866Z,185.63
2018-07-24T06:17:09.931Z,185.63
2018-07-24T06:18:09.998Z,185.63
2018-07-24T06:19:10.058Z,191.25
2018-07-24T06:20:10.123Z,191.25
2018-07-24T06:21:10.210Z,191.25
2018-07-24T06:22:10.258Z,191.25
2018-07-24T06:23:10.329Z,191.25
2018-07-24T06:24:10.394Z,191.25
2018-07-24T06:25:10.462Z,191.25
2018-07-24T06:26:10.534Z,191.25
2018-07-24T06:27:10.598Z,191.25
2018-07-24T06:28:10.658Z,196.88
2018-07-24T06:29:10.730Z,196.88
2018-07-24T06:30:10.795Z,196.88
2018-07-24T06:31:10.866Z,202.50
2018-07-24T06:32:10.934Z,202.50
2018-07-24T06:33:10.994Z,478.13
2018-07-24T06:34:11.062Z,1276.88
2018-07-24T06:35:11.131Z,2041.88
2018-07-24T06:36:11.211Z,2396.25
2018-07-24T06:37:11.267Z,2475.00
2018-07-24T06:38:11.338Z,2458.13
2018-07-24T06:39:11.406Z,2480.63
2018-07-24T06:40:11.475Z,2486.25
2018-07-24T06:41:11.551Z,2486.25
2018-07-24T06:42:11.622Z,2548.13
2018-07-24T06:43:11.686Z,2536.88
2018-07-24T06:44:11.821Z,2581.88
2018-07-24T06:45:11.831Z,2615.63
2018-07-24T06:46:11.927Z,2649.38
2018-07-24T06:47:12.003Z,2632.50
2018-07-24T06:48:12.058Z,2666.25
2018-07-24T06:49:12.139Z,2745.00
2018-07-24T06:50:12.203Z,2868.75
2018-07-24T06:51:12.323Z,3020.63
2018-07-24T06:52:12.350Z,3290.63
2018-07-24T06:53:12.427Z,3667.50
2018-07-24T06:54:12.533Z,4308.75
2018-07-24T06:55:12.605Z,3903.75
2018-07-24T06:56:12.666Z,2278.13
2018-07-24T06:57:12.742Z,1040.63
2018-07-24T06:58:12.827Z,871.88
2018-07-24T06:59:12.895Z,871.88
2018-07-24T07:00:12.975Z,877.50
2018-07-24T07:01:13.054Z,871.88
2018-07-24T07:02:13.230Z,860.63
2018-07-24T07:03:13.207Z,855.00
2018-07-24T07:04:13.302Z,855.00
2018-07-24T07:05:13.388Z,855.00
2018-07-24T07:06:13.455Z,866.25
2018-07-24T07:07:13.539Z,871.88
2018-07-24T07:08:13.603Z,877.50
2018-07-24T07:09:13.690Z,883.13
2018-07-24T07:10:13.811Z,894.38
2018-07-24T07:11:13.851Z,900.00
2018-07-24T07:12:13.930Z,905.63
2018-07-24T07:13:14.044Z,916.88
2018-07-24T07:14:14.090Z,916.88
2018-07-24T07:15:14.163Z,922.50
2018-07-24T07:16:14.277Z,928.13
2018-07-24T07:17:14.323Z,933.75
2018-07-24T07:18:14.408Z,950.63
2018-07-24T07:19:14.491Z,961.88
2018-07-24T07:20:14.567Z,973.13
2018-07-24T07:21:14.655Z,984.38
2018-07-24T07:22:14.735Z,1001.25
2018-07-24T07:23:14.820Z,1012.50
2018-07-24T07:24:14.891Z,1029.38
2018-07-24T07:25:14.975Z,1046.25
2018-07-24T07:26:15.096Z,1057.50
2018-07-24T07:27:15.157Z,1068.75
2018-07-24T07:28:15.219Z,1085.63
2018-07-24T07:29:15.363Z,1108.13
2018-07-24T07:30:15.385Z,1119.38
2018-07-24T07:31:15.471Z,1136.25
2018-07-24T07:32:15.605Z,1147.50
2018-07-24T07:33:15.628Z,1158.75
2018-07-24T07:34:15.707Z,1164.38
2018-07-24T07:35:15.792Z,1175.63
2018-07-24T07:36:15.890Z,1203.75
2018-07-24T07:37:15.960Z,1198.13
2018-07-24T07:38:16.040Z,1198.13
2018-07-24T07:39:16.209Z,1215.00
2018-07-24T07:40:16.200Z,1231.88
2018-07-24T07:41:16.396Z,1231.88
2018-07-24T07:42:16.364Z,1243.13
2018-07-24T07:43:16.444Z,1260.00
2018-07-24T07:44:16.536Z,1260.00
2018-07-24T07:45:16.640Z,1260.00
2018-07-24T07:46:16.704Z,1265.63
2018-07-24T07:47:16.792Z,1265.63
2018-07-24T07:48:16.856Z,1265.63
2018-07-24T07:49:16.936Z,1271.25
2018-07-24T07:50:17.025Z,1271.25
2018-07-24T07:51:17.256Z,1265.63
2018-07-24T07:52:17.188Z,1265.63
2018-07-24T07:53:17.269Z,1260.00
2018-07-24T07:54:17.348Z,1260.00
2018-07-24T07:55:17.433Z,1265.63
2018-07-24T07:56:17.520Z,1254.38
2018-07-24T07:57:17.621Z,1254.38
2018-07-24T07:58:17.944Z,1237.50
2018-07-24T07:59:17.761Z,1237.50
2018-07-24T08:00:17.845Z,1220.63
2018-07-24T08:01:17.932Z,1220.63
2018-07-24T08:02:18.017Z,1215.00
2018-07-24T08:03:18.106Z,1209.38
2018-07-24T08:04:18.281Z,1203.75
2018-07-24T08:05:18.257Z,1192.50
2018-07-24T08:06:18.495Z,1181.25
2018-07-24T08:07:18.421Z,1175.63
2018-07-24T08:08:18.519Z,1170.00
2018-07-24T08:09:18.585Z,1170.00
2018-07-24T08:10:18.673Z,1164.38
2018-07-24T08:11:18.757Z,1158.75
2018-07-24T08:12:18.880Z,1153.13
2018-07-24T08:13:18.916Z,1147.50
2018-07-24T08:14:18.998Z,1141.88
2018-07-24T08:15:19.086Z,1141.88
2018-07-24T08:16:19.314Z,1147.50
2018-07-24T08:17:19.245Z,1147.50
2018-07-24T08:18:19.325Z,1153.13
2018-07-24T08:19:19.410Z,1170.00
2018-07-24T08:20:19.490Z,1186.88
2018-07-24T08:21:19.578Z,1215.00
2018-07-24T08:22:19.708Z,1243.13
2018-07-24T08:23:19.738Z,1288.13
2018-07-24T08:24:19.818Z,1372.50
2018-07-24T08:25:19.906Z,1400.63
2018-07-24T08:26:19.990Z,1366.88
2018-07-24T08:27:20.078Z,1333.13
2018-07-24T08:28:20.147Z,1310.63
2018-07-24T08:29:20.230Z,1293.75
2018-07-24T08:30:20.315Z,1282.50
2018-07-24T08:31:20.402Z,1248.75
2018-07-24T08:32:20.483Z,1226.25
2018-07-24T08:33:20.562Z,1220.63
2018-07-24T08:34:20.642Z,1192.50
2018-07-24T08:35:20.727Z,1203.75
2018-07-24T08:36:20.810Z,1192.50
2018-07-24T08:37:20.895Z,1170.00
2018-07-24T08:38:20.970Z,1175.63
2018-07-24T08:39:21.050Z,1203.75
2018-07-24T08:40:21.140Z,1305.00
2018-07-24T08:41:21.463Z,1608.75
2018-07-24T08:42:21.299Z,1906.88
2018-07-24T08:43:21.379Z,2261.25
2018-07-24T08:44:21.463Z,2154.38
2018-07-24T08:45:21.543Z,1462.50
2018-07-24T08:46:21.635Z,1006.88
2018-07-24T08:47:21.720Z,967.50
2018-07-24T08:48:21.795Z,939.38
2018-07-24T08:49:21.881Z,922.50
2018-07-24T08:50:21.964Z,911.25
2018-07-24T08:51:22.051Z,900.00
2018-07-24T08:52:22.175Z,894.38
2018-07-24T08:53:22.440Z,883.13
2018-07-24T08:54:22.455Z,871.88
2018-07-24T08:55:22.719Z,860.63
2018-07-24T08:56:22.579Z,860.63
2018-07-24T08:57:22.540Z,860.63
2018-07-24T08:58:22.620Z,855.00
2018-07-24T08:59:22.704Z,860.63
2018-07-24T09:00:22.784Z,866.25
2018-07-24T09:01:22.884Z,866.25
2018-07-24T09:02:22.967Z,866.25
2018-07-24T09:03:23.039Z,871.88
2018-07-24T09:04:23.114Z,894.38
2018-07-24T09:05:23.196Z,900.00
2018-07-24T09:06:23.428Z,900.00
2018-07-24T09:07:23.363Z,916.88
2018-07-24T09:08:23.448Z,933.75
2018-07-24T09:09:23.520Z,945.00
2018-07-24T09:10:23.608Z,973.13
2018-07-24T09:11:23.692Z,1001.25
2018-07-24T09:12:23.772Z,1012.50
2018-07-24T09:13:23.844Z,1023.75
2018-07-24T09:14:23.940Z,1040.63
2018-07-24T09:15:24.054Z,1074.38
2018-07-24T09:16:24.092Z,1102.50
2018-07-24T09:17:24.184Z,1113.75
2018-07-24T09:18:24.252Z,1130.63
2018-07-24T09:19:24.334Z,1164.38
2018-07-24T09:20:24.408Z,1181.25
2018-07-24T09:21:24.498Z,1198.13
2018-07-24T09:22:24.591Z,1203.75
2018-07-24T09:23:24.660Z,1181.25
2018-07-24T09:24:24.739Z,1175.63
2018-07-24T09:25:24.816Z,1153.13
2018-07-24T09:26:24.896Z,1108.13
2018-07-24T09:27:24.984Z,1046.25
2018-07-24T09:28:25.060Z,995.63
2018-07-24T09:29:25.137Z,939.38
2018-07-24T09:30:25.221Z,894.38
2018-07-24T09:31:25.301Z,843.75
2018-07-24T09:32:25.381Z,798.75
2018-07-24T09:33:25.618Z,765.00
2018-07-24T09:34:25.544Z,725.63
2018-07-24T09:35:25.616Z,686.25
2018-07-24T09:36:25.697Z,652.50
2018-07-24T09:37:25.777Z,624.38
2018-07-24T09:38:25.864Z,607.50
2018-07-24T09:39:25.945Z,579.38
2018-07-24T09:40:26.039Z,562.50
2018-07-24T09:41:26.099Z,545.63
2018-07-24T09:42:26.177Z,523.13
2018-07-24T09:43:26.273Z,506.25
2018-07-24T09:44:26.333Z,495.00
2018-07-24T09:45:26.413Z,478.13
2018-07-24T09:46:26.501Z,461.25
2018-07-24T09:47:26.578Z,450.00
2018-07-24T09:48:26.658Z,444.38
2018-07-24T09:49:26.737Z,433.13
2018-07-24T09:50:26.849Z,421.88
2018-07-24T09:51:26.905Z,416.25
2018-07-24T09:52:26.979Z,405.00
2018-07-24T09:53:27.054Z,405.00
2018-07-24T09:54:27.136Z,399.38
2018-07-24T09:55:27.206Z,393.75
2018-07-24T09:56:27.309Z,388.13
2018-07-24T09:57:27.362Z,382.50
2018-07-24T09:58:27.465Z,376.88
2018-07-24T09:59:27.602Z,382.50
2018-07-24T10:00:27.597Z,371.25
2018-07-24T10:01:27.677Z,365.63
2018-07-24T10:02:27.758Z,371.25
2018-07-24T10:03:27.842Z,365.63
2018-07-24T10:04:27.922Z,365.63
2018-07-24T10:05:28.077Z,360.00
2018-07-24T10:06:28.074Z,360.00
2018-07-24T10:07:28.149Z,360.00
2018-07-24T10:08:28.230Z,354.38
2018-07-24T10:09:28.466Z,354.38
2018-07-24T10:10:28.385Z,354.38
2018-07-24T10:11:28.462Z,348.75
2018-07-24T10:12:28.542Z,348.75
2018-07-24T10:13:28.639Z,354.38
2018-07-24T10:14:28.702Z,348.75
2018-07-24T10:15:28.798Z,348.75
2018-07-24T10:16:28.886Z,348.75
2018-07-24T10:17:28.930Z,343.13
2018-07-24T10:18:29.010Z,343.13
2018-07-24T10:19:29.102Z,343.13
2018-07-24T10:20:29.162Z,343.13
2018-07-24T10:21:29.242Z,337.50
2018-07-24T10:22:29.322Z,337.50
2018-07-24T10:23:29.398Z,337.50
2018-07-24T10:24:29.546Z,337.50
2018-07-24T10:25:29.559Z,331.88
2018-07-24T10:26:29.630Z,331.88
2018-07-24T10:27:29.706Z,331.88
2018-07-24T10:28:29.787Z,326.25
2018-07-24T10:29:29.875Z,326.25
2018-07-24T10:30:30.035Z,326.25
2018-07-24T10:31:30.019Z,326.25
2018-07-24T10:32:30.091Z,320.63
2018-07-24T10:33:30.171Z,315.00
2018-07-24T10:34:30.271Z,315.00
2018-07-24T10:35:30.346Z,315.00
2018-07-24T10:36:30.453Z,315.00
2018-07-24T10:37:30.479Z,315.00
2018-07-24T10:38:30.554Z,315.00
2018-07-24T10:39:30.639Z,309.38
2018-07-24T10:40:30.715Z,315.00
2018-07-24T10:41:30.787Z,320.63
2018-07-24T10:42:30.864Z,315.00
2018-07-24T10:43:30.940Z,315.00
2018-07-24T10:44:31.019Z,315.00
2018-07-24T10:45:31.095Z,315.00
2018-07-24T10:46:31.167Z,315.00
2018-07-24T10:47:31.243Z,309.38
2018-07-24T10:48:31.319Z,309.38
2018-07-24T10:49:31.406Z,309.38
2018-07-24T10:50:31.479Z,303.75
2018-07-24T10:51:31.552Z,298.13
2018-07-24T10:52:31.623Z,298.13
2018-07-24T10:53:31.703Z,292.50
2018-07-24T10:54:31.784Z,292.50
2018-07-24T10:55:31.875Z,292.50
2018-07-24T10:56:31.927Z,292.50
2018-07-24T10:57:32.004Z,292.50
2018-07-24T10:58:32.082Z,292.50
2018-07-24T10:59:32.180Z,292.50
2018-07-24T11:00:32.231Z,298.13
2018-07-24T11:01:32.307Z,292.50
2018-07-24T11:02:32.388Z,292.50
2018-07-24T11:03:32.464Z,286.88
2018-07-24T11:04:32.542Z,292.50
2018-07-24T11:05:32.631Z,286.88
2018-07-24T11:06:32.687Z,292.50
2018-07-24T11:07:32.763Z,286.88
2018-07-24T11:08:32.839Z,286.88
2018-07-24T11:09:32.928Z,292.50
2018-07-24T11:10:32.996Z,286.88
2018-07-24T11:11:33.066Z,286.88
2018-07-24T11:12:33.136Z,286.88
2018-07-24T11:13:33.215Z,286.88
2018-07-24T11:14:33.319Z,286.88
2018-07-24T11:15:33.364Z,286.88
2018-07-24T11:16:33.491Z,286.88
2018-07-24T11:17:33.511Z,286.88
2018-07-24T11:18:33.592Z,286.88
2018-07-24T11:19:33.672Z,286.88
2018-07-24T11:20:33.748Z,286.88
2018-07-24T11:21:33.815Z,281.25
2018-07-24T11:22:34.004Z,281.25
2018-07-24T11:23:33.972Z,281.25
2018-07-24T11:24:34.052Z,281.25
2018-07-24T11:25:34.126Z,281.25
2018-07-24T11:26:34.196Z,281.25
2018-07-24T11:27:34.265Z,286.88
2018-07-24T11:28:34.347Z,281.25
2018-07-24T11:29:34.528Z,281.25
2018-07-24T11:30:34.492Z,286.88
2018-07-24T11:31:34.564Z,286.88
2018-07-24T11:32:34.640Z,286.88
2018-07-24T11:33:34.727Z,286.88
2018-07-24T11:34:34.800Z,286.88
2018-07-24T11:35:34.959Z,286.88
2018-07-24T11:36:34.944Z,286.88
2018-07-24T11:37:35.021Z,286.88
2018-07-24T11:38:35.158Z,281.25
2018-07-24T11:39:35.204Z,286.88
2018-07-24T11:40:35.244Z,286.88
2018-07-24T11:41:35.324Z,292.50
2018-07-24T11:42:35.392Z,286.88
2018-07-24T11:43:35.469Z,292.50
2018-07-24T11:44:35.565Z,292.50
2018-07-24T11:45:35.629Z,292.50
2018-07-24T11:46:35.749Z,281.25
2018-07-24T11:47:35.772Z,281.25
2018-07-24T11:48:35.869Z,281.25
2018-07-24T11:49:35.933Z,281.25
2018-07-24T11:50:36.007Z,129.38
2018-07-24T11:51:36.137Z,281.25
2018-07-24T11:52:36.153Z,286.88
2018-07-24T11:53:36.227Z,286.88
2018-07-24T11:54:36.310Z,275.63
2018-07-24T11:55:36.369Z,286.88
2018-07-24T11:56:36.445Z,292.50
2018-07-24T11:57:36.530Z,292.50
2018-07-24T11:58:36.601Z,303.75
2018-07-24T11:59:36.681Z,292.50
2018-07-24T12:00:36.753Z,292.50
2018-07-24T12:01:36.821Z,298.13
2018-07-24T12:02:36.897Z,292.50
2018-07-24T12:03:37.008Z,292.50
2018-07-24T12:04:37.054Z,298.13
2018-07-24T12:05:37.133Z,298.13
2018-07-24T12:06:37.198Z,298.13
2018-07-24T12:07:37.274Z,298.13
2018-07-24T12:08:37.349Z,298.13
2018-07-24T12:09:37.430Z,303.75
2018-07-24T12:10:37.514Z,303.75
2018-07-24T12:11:37.603Z,298.13
2018-07-24T12:12:37.650Z,298.13
2018-07-24T12:13:37.726Z,298.13
2018-07-24T12:14:37.840Z,298.13
2018-07-24T12:15:37.885Z,292.50
2018-07-24T12:16:37.958Z,292.50
2018-07-24T12:17:38.022Z,298.13
2018-07-24T12:18:38.102Z,298.13
2018-07-24T12:19:38.205Z,303.75
2018-07-24T12:20:38.254Z,298.13
2018-07-24T12:21:38.330Z,298.13
2018-07-24T12:22:38.406Z,286.88
2018-07-24T12:23:38.478Z,281.25
2018-07-24T12:24:38.706Z,286.88
2018-07-24T12:25:38.638Z,281.25
2018-07-24T12:26:38.710Z,281.25
2018-07-24T12:27:38.782Z,292.50
2018-07-24T12:28:38.855Z,286.88
2018-07-24T12:29:38.935Z,286.88
2018-07-24T12:30:39.019Z,286.88
2018-07-24T12:31:39.087Z,292.50
2018-07-24T12:32:39.155Z,286.88
2018-07-24T12:33:39.227Z,292.50
2018-07-24T12:34:39.314Z,292.50
2018-07-24T12:35:39.539Z,281.25
2018-07-24T12:36:39.455Z,292.50
2018-07-24T12:37:39.531Z,292.50
2018-07-24T12:38:39.603Z,286.88
2018-07-24T12:39:39.689Z,286.88
2018-07-24T12:40:39.763Z,292.50
2018-07-24T12:41:39.839Z,298.13
2018-07-24T12:42:39.913Z,303.75